CheckWX is a tool to help pilots better visualize weather data.  It is not intended as a substitute for an official pre-flight weather briefing.

07:04:44 UTC

KGLS TAF
Scholes International at Galveston Airport
Galveston, Texas, USA
KGLS 230523Z 2306/2406 12009KT P6SM BKN250 FM230800 16008KT P6SM BKN040 FM231500 15011KT P6SM OVC035 FM232200 15013KT P6SM OVC025

Feb-23@
06:00 UTC

Feb-23 @ 06:00 UTC

Feb-23@
08:00 UTC

Feb-23 @ 08:00 UTC

KGLS 230523Z 2306/2406 12009KT P6SM BKN250
Wind
  • 120° at 9 KTS
Cloud Levels
  • Broken at 25,000' AGL

Feb-23@
08:00 UTC

Feb-23 @ 08:00 UTC

Feb-23@
15:00 UTC

Feb-23 @ 15:00 UTC

FM230800 16008KT P6SM BKN040

From

From Standard forecast or significant change

Wind
  • 160° at 8 KTS
Cloud Levels
  • Broken at 4,000' AGL

Feb-23@
15:00 UTC

Feb-23 @ 15:00 UTC

Feb-23@
22:00 UTC

Feb-23 @ 22:00 UTC

FM231500 15011KT P6SM OVC035

From

From Standard forecast or significant change

Wind
  • 150° at 11 KTS
Cloud Levels
  • Overcast at 3,500' AGL

Feb-23@
22:00 UTC

Feb-23 @ 22:00 UTC

Feb-24@
06:00 UTC

Feb-24 @ 06:00 UTC

FM232200 15013KT P6SM OVC025

From

From Standard forecast or significant change

Wind
  • 150° at 13 KTS
Cloud Levels
  • Overcast at 2,500' AGL